<?xml version="1.0" encoding="UTF-8" standalone="no" ?>
<gpx xmlns="http://www.topografix.com/GPX/1/1" xmlns:xsi="http://www.w3.org/2001/XMLSchema-instance" xsi:schemaLocation="http://www.topografix.com/GPX/1/1 http://www.topografix.com/GPX/1/1/gpx.xsd" version="1.1" creator="VisuGPX - https://www.visugpx.com">
  <metadata>
    <name>Thorame (04) - Fabas (82) -  2021</name>
    <desc><![CDATA[Thorame (04) - Fabas (82) -  2021
plus de voies vertes qu'à l'aller vers Tarascon...]]></desc>
  </metadata>
  <trk>
    <name><![CDATA[Jour06B]]></name>
    <trkseg>
      <trkpt lat="43.77408" lon="1.68614">
        <ele>110.4</ele>
        <time>2021-08-18T10:37:15Z</time>
      </trkpt>
      <trkpt lat="43.77437" lon="1.68471">
        <ele>112.7</ele>
        <time>2021-08-18T10:38:27Z</time>
      </trkpt>
      <trkpt lat="43.77519" lon="1.68395">
        <ele>112.2</ele>
        <time>2021-08-18T10:38:57Z</time>
      </trkpt>
      <trkpt lat="43.7761" lon="1.68379">
        <ele>111.9</ele>
        <time>2021-08-18T10:39:22Z</time>
      </trkpt>
      <trkpt lat="43.7765" lon="1.6825">
        <ele>115.3</ele>
        <time>2021-08-18T10:39:47Z</time>
      </trkpt>
      <trkpt lat="43.77677" lon="1.68126">
        <ele>119.8</ele>
        <time>2021-08-18T10:40:07Z</time>
      </trkpt>
      <trkpt lat="43.77679" lon="1.67999">
        <ele>121</ele>
        <time>2021-08-18T10:40:27Z</time>
      </trkpt>
      <trkpt lat="43.77701" lon="1.67862">
        <ele>119.2</ele>
        <time>2021-08-18T10:40:52Z</time>
      </trkpt>
      <trkpt lat="43.77725" lon="1.67731">
        <ele>114.3</ele>
        <time>2021-08-18T10:41:12Z</time>
      </trkpt>
      <trkpt lat="43.77715" lon="1.676">
        <ele>109.9</ele>
        <time>2021-08-18T10:41:32Z</time>
      </trkpt>
      <trkpt lat="43.77698" lon="1.67454">
        <ele>113.3</ele>
        <time>2021-08-18T10:41:57Z</time>
      </trkpt>
      <trkpt lat="43.77702" lon="1.67319">
        <ele>113.8</ele>
        <time>2021-08-18T10:42:17Z</time>
      </trkpt>
      <trkpt lat="43.77714" lon="1.67189">
        <ele>116.3</ele>
        <time>2021-08-18T10:42:37Z</time>
      </trkpt>
      <trkpt lat="43.77674" lon="1.67049">
        <ele>115.7</ele>
        <time>2021-08-18T10:43:02Z</time>
      </trkpt>
      <trkpt lat="43.77618" lon="1.6693">
        <ele>115.5</ele>
        <time>2021-08-18T10:43:22Z</time>
      </trkpt>
      <trkpt lat="43.77566" lon="1.66804">
        <ele>110.2</ele>
        <time>2021-08-18T10:43:42Z</time>
      </trkpt>
      <trkpt lat="43.7753" lon="1.66654">
        <ele>108.3</ele>
        <time>2021-08-18T10:44:02Z</time>
      </trkpt>
      <trkpt lat="43.77507" lon="1.66523">
        <ele>109.5</ele>
        <time>2021-08-18T10:49:03Z</time>
      </trkpt>
      <trkpt lat="43.77484" lon="1.66392">
        <ele>108.1</ele>
        <time>2021-08-18T10:49:23Z</time>
      </trkpt>
      <trkpt lat="43.77454" lon="1.66268">
        <ele>107.6</ele>
        <time>2021-08-18T10:49:48Z</time>
      </trkpt>
      <trkpt lat="43.77391" lon="1.66135">
        <ele>106.8</ele>
        <time>2021-08-18T10:50:08Z</time>
      </trkpt>
      <trkpt lat="43.77336" lon="1.66031">
        <ele>106.9</ele>
        <time>2021-08-18T10:50:28Z</time>
      </trkpt>
      <trkpt lat="43.77278" lon="1.65916">
        <ele>107.8</ele>
        <time>2021-08-18T10:50:48Z</time>
      </trkpt>
      <trkpt lat="43.77223" lon="1.65807">
        <ele>111.7</ele>
        <time>2021-08-18T10:51:08Z</time>
      </trkpt>
      <trkpt lat="43.77161" lon="1.65676">
        <ele>116.5</ele>
        <time>2021-08-18T10:51:28Z</time>
      </trkpt>
      <trkpt lat="43.77118" lon="1.65551">
        <ele>115.7</ele>
        <time>2021-08-18T10:51:53Z</time>
      </trkpt>
      <trkpt lat="43.7715" lon="1.65412">
        <ele>105.8</ele>
        <time>2021-08-18T10:52:18Z</time>
      </trkpt>
      <trkpt lat="43.77199" lon="1.65292">
        <ele>107.8</ele>
        <time>2021-08-18T10:52:38Z</time>
      </trkpt>
      <trkpt lat="43.77233" lon="1.65164">
        <ele>110.3</ele>
        <time>2021-08-18T10:52:58Z</time>
      </trkpt>
      <trkpt lat="43.77254" lon="1.65002">
        <ele>110.5</ele>
        <time>2021-08-18T10:53:18Z</time>
      </trkpt>
      <trkpt lat="43.77267" lon="1.64877">
        <ele>109.7</ele>
        <time>2021-08-18T10:53:33Z</time>
      </trkpt>
      <trkpt lat="43.77286" lon="1.64727">
        <ele>110.4</ele>
        <time>2021-08-18T10:53:53Z</time>
      </trkpt>
      <trkpt lat="43.77315" lon="1.64596">
        <ele>110</ele>
        <time>2021-08-18T10:54:13Z</time>
      </trkpt>
      <trkpt lat="43.77351" lon="1.6447">
        <ele>110.5</ele>
        <time>2021-08-18T10:54:33Z</time>
      </trkpt>
      <trkpt lat="43.77391" lon="1.64328">
        <ele>109.1</ele>
        <time>2021-08-18T10:54:53Z</time>
      </trkpt>
      <trkpt lat="43.77437" lon="1.64178">
        <ele>108.1</ele>
        <time>2021-08-18T10:55:13Z</time>
      </trkpt>
      <trkpt lat="43.77469" lon="1.64061">
        <ele>111.8</ele>
        <time>2021-08-18T10:55:28Z</time>
      </trkpt>
      <trkpt lat="43.77511" lon="1.63916">
        <ele>112.4</ele>
        <time>2021-08-18T10:55:48Z</time>
      </trkpt>
      <trkpt lat="43.77551" lon="1.63782">
        <ele>109.3</ele>
        <time>2021-08-18T10:56:08Z</time>
      </trkpt>
      <trkpt lat="43.77582" lon="1.63658">
        <ele>111</ele>
        <time>2021-08-18T10:56:28Z</time>
      </trkpt>
      <trkpt lat="43.77614" lon="1.63526">
        <ele>110.1</ele>
        <time>2021-08-18T10:56:53Z</time>
      </trkpt>
      <trkpt lat="43.77677" lon="1.63421">
        <ele>112.1</ele>
        <time>2021-08-18T10:58:42Z</time>
      </trkpt>
      <trkpt lat="43.77773" lon="1.63423">
        <ele>108.8</ele>
        <time>2021-08-18T10:59:31Z</time>
      </trkpt>
      <trkpt lat="43.77877" lon="1.63469">
        <ele>107.9</ele>
        <time>2021-08-18T10:59:56Z</time>
      </trkpt>
      <trkpt lat="43.77967" lon="1.63525">
        <ele>103.3</ele>
        <time>2021-08-18T11:00:31Z</time>
      </trkpt>
      <trkpt lat="43.77879" lon="1.63468">
        <ele>107.7</ele>
        <time>2021-08-18T11:01:06Z</time>
      </trkpt>
      <trkpt lat="43.77882" lon="1.63332">
        <ele>111.5</ele>
        <time>2021-08-18T11:01:41Z</time>
      </trkpt>
      <trkpt lat="43.77969" lon="1.6338">
        <ele>111.8</ele>
        <time>2021-08-18T11:02:06Z</time>
      </trkpt>
      <trkpt lat="43.78067" lon="1.63368">
        <ele>108.5</ele>
        <time>2021-08-18T11:02:58Z</time>
      </trkpt>
      <trkpt lat="43.78004" lon="1.63259">
        <ele>101</ele>
        <time>2021-08-18T12:31:08Z</time>
      </trkpt>
      <trkpt lat="43.78032" lon="1.63131">
        <ele>103.8</ele>
        <time>2021-08-18T12:31:48Z</time>
      </trkpt>
      <trkpt lat="43.78104" lon="1.63048">
        <ele>105.5</ele>
        <time>2021-08-18T12:32:08Z</time>
      </trkpt>
      <trkpt lat="43.78178" lon="1.62948">
        <ele>115.7</ele>
        <time>2021-08-18T12:32:33Z</time>
      </trkpt>
      <trkpt lat="43.78247" lon="1.62866">
        <ele>112.9</ele>
        <time>2021-08-18T12:32:58Z</time>
      </trkpt>
      <trkpt lat="43.78332" lon="1.6279">
        <ele>111.7</ele>
        <time>2021-08-18T12:33:23Z</time>
      </trkpt>
      <trkpt lat="43.78411" lon="1.62709">
        <ele>107.3</ele>
        <time>2021-08-18T12:33:43Z</time>
      </trkpt>
      <trkpt lat="43.78497" lon="1.62609">
        <ele>106.7</ele>
        <time>2021-08-18T12:34:03Z</time>
      </trkpt>
      <trkpt lat="43.78579" lon="1.62513">
        <ele>104.6</ele>
        <time>2021-08-18T12:34:23Z</time>
      </trkpt>
      <trkpt lat="43.7866" lon="1.62419">
        <ele>107.2</ele>
        <time>2021-08-18T12:34:43Z</time>
      </trkpt>
      <trkpt lat="43.78734" lon="1.62327">
        <ele>109.4</ele>
        <time>2021-08-18T12:35:03Z</time>
      </trkpt>
      <trkpt lat="43.78806" lon="1.6224">
        <ele>106.4</ele>
        <time>2021-08-18T12:35:28Z</time>
      </trkpt>
      <trkpt lat="43.78897" lon="1.62198">
        <ele>106.6</ele>
        <time>2021-08-18T12:35:48Z</time>
      </trkpt>
      <trkpt lat="43.78985" lon="1.62144">
        <ele>104.9</ele>
        <time>2021-08-18T12:36:08Z</time>
      </trkpt>
      <trkpt lat="43.7908" lon="1.62071">
        <ele>104.2</ele>
        <time>2021-08-18T12:36:33Z</time>
      </trkpt>
      <trkpt lat="43.79163" lon="1.61981">
        <ele>103.6</ele>
        <time>2021-08-18T12:36:58Z</time>
      </trkpt>
      <trkpt lat="43.79235" lon="1.61907">
        <ele>104.8</ele>
        <time>2021-08-18T12:37:18Z</time>
      </trkpt>
      <trkpt lat="43.79309" lon="1.6183">
        <ele>102.5</ele>
        <time>2021-08-18T12:37:38Z</time>
      </trkpt>
      <trkpt lat="43.79386" lon="1.61751">
        <ele>100.8</ele>
        <time>2021-08-18T12:37:58Z</time>
      </trkpt>
      <trkpt lat="43.79462" lon="1.6167">
        <ele>102.5</ele>
        <time>2021-08-18T12:38:18Z</time>
      </trkpt>
      <trkpt lat="43.79544" lon="1.61567">
        <ele>102.8</ele>
        <time>2021-08-18T12:38:43Z</time>
      </trkpt>
      <trkpt lat="43.7961" lon="1.61443">
        <ele>107.6</ele>
        <time>2021-08-18T12:39:03Z</time>
      </trkpt>
      <trkpt lat="43.79686" lon="1.61322">
        <ele>106</ele>
        <time>2021-08-18T12:39:23Z</time>
      </trkpt>
      <trkpt lat="43.79773" lon="1.61226">
        <ele>107</ele>
        <time>2021-08-18T12:39:43Z</time>
      </trkpt>
      <trkpt lat="43.79857" lon="1.61121">
        <ele>107.1</ele>
        <time>2021-08-18T12:40:03Z</time>
      </trkpt>
      <trkpt lat="43.79922" lon="1.61013">
        <ele>106.3</ele>
        <time>2021-08-18T12:40:23Z</time>
      </trkpt>
      <trkpt lat="43.7996" lon="1.60877">
        <ele>106.8</ele>
        <time>2021-08-18T12:40:43Z</time>
      </trkpt>
      <trkpt lat="43.80031" lon="1.60801">
        <ele>110.3</ele>
        <time>2021-08-18T12:41:18Z</time>
      </trkpt>
      <trkpt lat="43.80073" lon="1.60675">
        <ele>95.9</ele>
        <time>2021-08-18T12:53:33Z</time>
      </trkpt>
      <trkpt lat="43.8007" lon="1.60546">
        <ele>103.9</ele>
        <time>2021-08-18T12:54:33Z</time>
      </trkpt>
      <trkpt lat="43.80049" lon="1.60422">
        <ele>104.9</ele>
        <time>2021-08-18T12:55:03Z</time>
      </trkpt>
      <trkpt lat="43.80085" lon="1.60283">
        <ele>106.9</ele>
        <time>2021-08-18T12:55:28Z</time>
      </trkpt>
      <trkpt lat="43.80101" lon="1.60148">
        <ele>108.1</ele>
        <time>2021-08-18T12:55:48Z</time>
      </trkpt>
      <trkpt lat="43.80103" lon="1.60013">
        <ele>107.7</ele>
        <time>2021-08-18T12:56:08Z</time>
      </trkpt>
      <trkpt lat="43.80118" lon="1.59879">
        <ele>110.2</ele>
        <time>2021-08-18T12:56:28Z</time>
      </trkpt>
      <trkpt lat="43.80136" lon="1.59747">
        <ele>104.8</ele>
        <time>2021-08-18T12:56:48Z</time>
      </trkpt>
      <trkpt lat="43.80135" lon="1.59597">
        <ele>103.2</ele>
        <time>2021-08-18T12:57:13Z</time>
      </trkpt>
      <trkpt lat="43.80099" lon="1.5947">
        <ele>101.7</ele>
        <time>2021-08-18T12:57:38Z</time>
      </trkpt>
      <trkpt lat="43.80079" lon="1.59337">
        <ele>105.5</ele>
        <time>2021-08-18T12:58:03Z</time>
      </trkpt>
      <trkpt lat="43.80102" lon="1.59202">
        <ele>108.8</ele>
        <time>2021-08-18T12:58:41Z</time>
      </trkpt>
      <trkpt lat="43.80144" lon="1.59076">
        <ele>106.2</ele>
        <time>2021-08-18T12:59:53Z</time>
      </trkpt>
      <trkpt lat="43.80217" lon="1.58968">
        <ele>106</ele>
        <time>2021-08-18T13:00:18Z</time>
      </trkpt>
      <trkpt lat="43.80284" lon="1.58876">
        <ele>108.5</ele>
        <time>2021-08-18T13:00:38Z</time>
      </trkpt>
      <trkpt lat="43.80337" lon="1.58759">
        <ele>110.3</ele>
        <time>2021-08-18T13:00:58Z</time>
      </trkpt>
      <trkpt lat="43.80384" lon="1.58628">
        <ele>110</ele>
        <time>2021-08-18T13:01:18Z</time>
      </trkpt>
      <trkpt lat="43.80433" lon="1.58515">
        <ele>108.8</ele>
        <time>2021-08-18T13:01:38Z</time>
      </trkpt>
      <trkpt lat="43.80476" lon="1.58393">
        <ele>103.7</ele>
        <time>2021-08-18T13:01:58Z</time>
      </trkpt>
      <trkpt lat="43.80522" lon="1.58259">
        <ele>100.9</ele>
        <time>2021-08-18T13:02:18Z</time>
      </trkpt>
      <trkpt lat="43.80569" lon="1.58126">
        <ele>99.3</ele>
        <time>2021-08-18T13:02:38Z</time>
      </trkpt>
      <trkpt lat="43.80619" lon="1.5799">
        <ele>97</ele>
        <time>2021-08-18T13:02:58Z</time>
      </trkpt>
      <trkpt lat="43.80661" lon="1.5785">
        <ele>96.3</ele>
        <time>2021-08-18T13:03:18Z</time>
      </trkpt>
      <trkpt lat="43.80703" lon="1.57721">
        <ele>95.1</ele>
        <time>2021-08-18T13:03:38Z</time>
      </trkpt>
      <trkpt lat="43.80749" lon="1.57606">
        <ele>93.7</ele>
        <time>2021-08-18T13:03:58Z</time>
      </trkpt>
      <trkpt lat="43.80786" lon="1.57492">
        <ele>95.1</ele>
        <time>2021-08-18T13:04:18Z</time>
      </trkpt>
      <trkpt lat="43.80819" lon="1.57357">
        <ele>96.2</ele>
        <time>2021-08-18T13:04:38Z</time>
      </trkpt>
      <trkpt lat="43.80847" lon="1.57208">
        <ele>96.8</ele>
        <time>2021-08-18T13:04:58Z</time>
      </trkpt>
      <trkpt lat="43.80886" lon="1.57075">
        <ele>98.4</ele>
        <time>2021-08-18T13:05:18Z</time>
      </trkpt>
      <trkpt lat="43.80926" lon="1.56951">
        <ele>102.4</ele>
        <time>2021-08-18T13:05:38Z</time>
      </trkpt>
      <trkpt lat="43.80974" lon="1.56814">
        <ele>106</ele>
        <time>2021-08-18T13:06:03Z</time>
      </trkpt>
      <trkpt lat="43.81016" lon="1.56694">
        <ele>104.1</ele>
        <time>2021-08-18T13:06:23Z</time>
      </trkpt>
      <trkpt lat="43.81059" lon="1.56572">
        <ele>105.6</ele>
        <time>2021-08-18T13:06:43Z</time>
      </trkpt>
      <trkpt lat="43.8109" lon="1.56442">
        <ele>110.6</ele>
        <time>2021-08-18T13:07:03Z</time>
      </trkpt>
      <trkpt lat="43.81117" lon="1.56298">
        <ele>113.4</ele>
        <time>2021-08-18T13:07:23Z</time>
      </trkpt>
      <trkpt lat="43.81137" lon="1.56154">
        <ele>116.4</ele>
        <time>2021-08-18T13:07:43Z</time>
      </trkpt>
      <trkpt lat="43.81164" lon="1.56015">
        <ele>115.8</ele>
        <time>2021-08-18T13:08:03Z</time>
      </trkpt>
      <trkpt lat="43.81206" lon="1.5589">
        <ele>113.3</ele>
        <time>2021-08-18T13:08:23Z</time>
      </trkpt>
      <trkpt lat="43.81248" lon="1.55747">
        <ele>117.7</ele>
        <time>2021-08-18T13:08:43Z</time>
      </trkpt>
      <trkpt lat="43.81285" lon="1.55601">
        <ele>115.5</ele>
        <time>2021-08-18T13:09:03Z</time>
      </trkpt>
      <trkpt lat="43.8132" lon="1.55455">
        <ele>108.2</ele>
        <time>2021-08-18T13:09:23Z</time>
      </trkpt>
      <trkpt lat="43.81348" lon="1.55327">
        <ele>102.9</ele>
        <time>2021-08-18T13:09:43Z</time>
      </trkpt>
      <trkpt lat="43.81373" lon="1.55196">
        <ele>104.2</ele>
        <time>2021-08-18T13:10:03Z</time>
      </trkpt>
      <trkpt lat="43.814" lon="1.5506">
        <ele>104.3</ele>
        <time>2021-08-18T13:10:23Z</time>
      </trkpt>
      <trkpt lat="43.8144" lon="1.54906">
        <ele>101.2</ele>
        <time>2021-08-18T13:10:43Z</time>
      </trkpt>
      <trkpt lat="43.81483" lon="1.54768">
        <ele>99.2</ele>
        <time>2021-08-18T13:11:03Z</time>
      </trkpt>
      <trkpt lat="43.81544" lon="1.54671">
        <ele>99.1</ele>
        <time>2021-08-18T13:11:23Z</time>
      </trkpt>
      <trkpt lat="43.81601" lon="1.54576">
        <ele>99.1</ele>
        <time>2021-08-18T13:11:43Z</time>
      </trkpt>
      <trkpt lat="43.81573" lon="1.54437">
        <ele>101.2</ele>
        <time>2021-08-18T13:12:13Z</time>
      </trkpt>
      <trkpt lat="43.81595" lon="1.54315">
        <ele>101.1</ele>
        <time>2021-08-18T13:12:43Z</time>
      </trkpt>
      <trkpt lat="43.81522" lon="1.54198">
        <ele>99.7</ele>
        <time>2021-08-18T13:13:08Z</time>
      </trkpt>
      <trkpt lat="43.81544" lon="1.54067">
        <ele>98.4</ele>
        <time>2021-08-18T13:13:43Z</time>
      </trkpt>
      <trkpt lat="43.81556" lon="1.53943">
        <ele>97.6</ele>
        <time>2021-08-18T13:14:13Z</time>
      </trkpt>
      <trkpt lat="43.81572" lon="1.53806">
        <ele>98.4</ele>
        <time>2021-08-18T13:14:43Z</time>
      </trkpt>
      <trkpt lat="43.81594" lon="1.53669">
        <ele>102.5</ele>
        <time>2021-08-18T13:16:36Z</time>
      </trkpt>
      <trkpt lat="43.81603" lon="1.53522">
        <ele>104.2</ele>
        <time>2021-08-18T13:17:06Z</time>
      </trkpt>
      <trkpt lat="43.8162" lon="1.53376">
        <ele>105.2</ele>
        <time>2021-08-18T13:17:31Z</time>
      </trkpt>
      <trkpt lat="43.81656" lon="1.53256">
        <ele>105.2</ele>
        <time>2021-08-18T13:17:51Z</time>
      </trkpt>
      <trkpt lat="43.81679" lon="1.53133">
        <ele>107.1</ele>
        <time>2021-08-18T13:18:11Z</time>
      </trkpt>
      <trkpt lat="43.81696" lon="1.52981">
        <ele>109.5</ele>
        <time>2021-08-18T13:18:36Z</time>
      </trkpt>
      <trkpt lat="43.81692" lon="1.52846">
        <ele>113.4</ele>
        <time>2021-08-18T13:18:56Z</time>
      </trkpt>
      <trkpt lat="43.81673" lon="1.52711">
        <ele>116.4</ele>
        <time>2021-08-18T13:19:16Z</time>
      </trkpt>
      <trkpt lat="43.81682" lon="1.52576">
        <ele>117.9</ele>
        <time>2021-08-18T13:19:36Z</time>
      </trkpt>
      <trkpt lat="43.81691" lon="1.52442">
        <ele>121</ele>
        <time>2021-08-18T13:19:56Z</time>
      </trkpt>
      <trkpt lat="43.81726" lon="1.52316">
        <ele>123.2</ele>
        <time>2021-08-18T13:20:16Z</time>
      </trkpt>
      <trkpt lat="43.81766" lon="1.52174">
        <ele>126.1</ele>
        <time>2021-08-18T13:20:36Z</time>
      </trkpt>
      <trkpt lat="43.81812" lon="1.52046">
        <ele>127.4</ele>
        <time>2021-08-18T13:20:56Z</time>
      </trkpt>
      <trkpt lat="43.81778" lon="1.51914">
        <ele>123.2</ele>
        <time>2021-08-18T13:21:16Z</time>
      </trkpt>
      <trkpt lat="43.81742" lon="1.51797">
        <ele>115.7</ele>
        <time>2021-08-18T13:21:36Z</time>
      </trkpt>
      <trkpt lat="43.81698" lon="1.51676">
        <ele>114.5</ele>
        <time>2021-08-18T13:21:56Z</time>
      </trkpt>
      <trkpt lat="43.8165" lon="1.51545">
        <ele>113.9</ele>
        <time>2021-08-18T13:22:16Z</time>
      </trkpt>
      <trkpt lat="43.81647" lon="1.51408">
        <ele>112</ele>
        <time>2021-08-18T13:22:36Z</time>
      </trkpt>
      <trkpt lat="43.8167" lon="1.51286">
        <ele>109.6</ele>
        <time>2021-08-18T13:22:56Z</time>
      </trkpt>
      <trkpt lat="43.81672" lon="1.51144">
        <ele>109</ele>
        <time>2021-08-18T13:23:21Z</time>
      </trkpt>
      <trkpt lat="43.817" lon="1.51002">
        <ele>112.1</ele>
        <time>2021-08-18T13:23:41Z</time>
      </trkpt>
      <trkpt lat="43.81735" lon="1.50872">
        <ele>113.6</ele>
        <time>2021-08-18T13:23:56Z</time>
      </trkpt>
      <trkpt lat="43.81758" lon="1.50722">
        <ele>113.5</ele>
        <time>2021-08-18T13:24:16Z</time>
      </trkpt>
      <trkpt lat="43.81734" lon="1.50588">
        <ele>113.3</ele>
        <time>2021-08-18T13:24:36Z</time>
      </trkpt>
      <trkpt lat="43.81718" lon="1.5045">
        <ele>113.2</ele>
        <time>2021-08-18T13:24:56Z</time>
      </trkpt>
      <trkpt lat="43.81718" lon="1.50324">
        <ele>111</ele>
        <time>2021-08-18T13:25:16Z</time>
      </trkpt>
      <trkpt lat="43.81716" lon="1.50189">
        <ele>111.2</ele>
        <time>2021-08-18T13:25:36Z</time>
      </trkpt>
      <trkpt lat="43.81736" lon="1.50049">
        <ele>114.4</ele>
        <time>2021-08-18T13:25:58Z</time>
      </trkpt>
      <trkpt lat="43.8179" lon="1.4995">
        <ele>115.8</ele>
        <time>2021-08-18T13:26:18Z</time>
      </trkpt>
      <trkpt lat="43.81802" lon="1.4981">
        <ele>116.4</ele>
        <time>2021-08-18T13:26:43Z</time>
      </trkpt>
      <trkpt lat="43.81823" lon="1.49668">
        <ele>113.5</ele>
        <time>2021-08-18T13:27:08Z</time>
      </trkpt>
      <trkpt lat="43.81839" lon="1.49536">
        <ele>113.3</ele>
        <time>2021-08-18T13:27:33Z</time>
      </trkpt>
      <trkpt lat="43.81855" lon="1.49404">
        <ele>111.7</ele>
        <time>2021-08-18T13:27:58Z</time>
      </trkpt>
      <trkpt lat="43.81896" lon="1.4927">
        <ele>113.7</ele>
        <time>2021-08-18T13:28:23Z</time>
      </trkpt>
      <trkpt lat="43.81956" lon="1.49168">
        <ele>113.7</ele>
        <time>2021-08-18T13:28:43Z</time>
      </trkpt>
      <trkpt lat="43.82009" lon="1.49068">
        <ele>114.8</ele>
        <time>2021-08-18T13:29:03Z</time>
      </trkpt>
      <trkpt lat="43.82076" lon="1.48946">
        <ele>122.2</ele>
        <time>2021-08-18T13:29:28Z</time>
      </trkpt>
      <trkpt lat="43.82132" lon="1.48843">
        <ele>121.4</ele>
        <time>2021-08-18T13:29:48Z</time>
      </trkpt>
      <trkpt lat="43.82201" lon="1.48742">
        <ele>118.2</ele>
        <time>2021-08-18T13:30:08Z</time>
      </trkpt>
      <trkpt lat="43.82265" lon="1.48637">
        <ele>117.5</ele>
        <time>2021-08-18T13:30:28Z</time>
      </trkpt>
      <trkpt lat="43.82329" lon="1.48535">
        <ele>114.6</ele>
        <time>2021-08-18T13:30:48Z</time>
      </trkpt>
      <trkpt lat="43.82386" lon="1.48425">
        <ele>114.1</ele>
        <time>2021-08-18T13:31:08Z</time>
      </trkpt>
      <trkpt lat="43.8245" lon="1.48316">
        <ele>111.1</ele>
        <time>2021-08-18T13:31:28Z</time>
      </trkpt>
      <trkpt lat="43.82516" lon="1.48208">
        <ele>114</ele>
        <time>2021-08-18T13:31:48Z</time>
      </trkpt>
      <trkpt lat="43.82555" lon="1.48078">
        <ele>114.2</ele>
        <time>2021-08-18T13:32:08Z</time>
      </trkpt>
      <trkpt lat="43.8261" lon="1.47967">
        <ele>115.2</ele>
        <time>2021-08-18T13:32:28Z</time>
      </trkpt>
      <trkpt lat="43.82664" lon="1.47867">
        <ele>117.3</ele>
        <time>2021-08-18T13:32:48Z</time>
      </trkpt>
      <trkpt lat="43.82729" lon="1.47762">
        <ele>115.5</ele>
        <time>2021-08-18T13:33:08Z</time>
      </trkpt>
      <trkpt lat="43.82783" lon="1.47663">
        <ele>116.2</ele>
        <time>2021-08-18T13:33:28Z</time>
      </trkpt>
      <trkpt lat="43.82843" lon="1.47538">
        <ele>115.9</ele>
        <time>2021-08-18T13:33:53Z</time>
      </trkpt>
      <trkpt lat="43.82909" lon="1.47439">
        <ele>116</ele>
        <time>2021-08-18T13:34:13Z</time>
      </trkpt>
      <trkpt lat="43.82965" lon="1.47337">
        <ele>118.7</ele>
        <time>2021-08-18T13:34:33Z</time>
      </trkpt>
      <trkpt lat="43.8301" lon="1.47222">
        <ele>120.8</ele>
        <time>2021-08-18T13:34:53Z</time>
      </trkpt>
      <trkpt lat="43.83051" lon="1.47099">
        <ele>119.3</ele>
        <time>2021-08-18T13:35:13Z</time>
      </trkpt>
      <trkpt lat="43.83114" lon="1.4699">
        <ele>115.1</ele>
        <time>2021-08-18T13:35:33Z</time>
      </trkpt>
      <trkpt lat="43.83179" lon="1.46904">
        <ele>113.2</ele>
        <time>2021-08-18T13:35:53Z</time>
      </trkpt>
      <trkpt lat="43.83238" lon="1.46809">
        <ele>113.2</ele>
        <time>2021-08-18T13:36:13Z</time>
      </trkpt>
      <trkpt lat="43.83278" lon="1.46688">
        <ele>115.4</ele>
        <time>2021-08-18T13:36:33Z</time>
      </trkpt>
      <trkpt lat="43.83323" lon="1.4657">
        <ele>115.8</ele>
        <time>2021-08-18T13:36:53Z</time>
      </trkpt>
      <trkpt lat="43.83334" lon="1.46443">
        <ele>113.2</ele>
        <time>2021-08-18T13:37:13Z</time>
      </trkpt>
      <trkpt lat="43.8335" lon="1.46311">
        <ele>114.5</ele>
        <time>2021-08-18T13:37:38Z</time>
      </trkpt>
      <trkpt lat="43.83379" lon="1.46187">
        <ele>112</ele>
        <time>2021-08-18T13:37:58Z</time>
      </trkpt>
      <trkpt lat="43.83407" lon="1.4606">
        <ele>111.7</ele>
        <time>2021-08-18T13:38:18Z</time>
      </trkpt>
      <trkpt lat="43.83446" lon="1.45937">
        <ele>109.7</ele>
        <time>2021-08-18T13:38:38Z</time>
      </trkpt>
      <trkpt lat="43.83463" lon="1.45803">
        <ele>109</ele>
        <time>2021-08-18T13:38:58Z</time>
      </trkpt>
      <trkpt lat="43.83481" lon="1.45673">
        <ele>111.9</ele>
        <time>2021-08-18T13:39:18Z</time>
      </trkpt>
      <trkpt lat="43.83516" lon="1.45552">
        <ele>110.6</ele>
        <time>2021-08-18T13:39:38Z</time>
      </trkpt>
      <trkpt lat="43.83568" lon="1.45447">
        <ele>111.9</ele>
        <time>2021-08-18T13:39:53Z</time>
      </trkpt>
      <trkpt lat="43.83636" lon="1.45355">
        <ele>111.6</ele>
        <time>2021-08-18T13:40:13Z</time>
      </trkpt>
      <trkpt lat="43.83626" lon="1.45216">
        <ele>114</ele>
        <time>2021-08-18T13:40:38Z</time>
      </trkpt>
      <trkpt lat="43.83607" lon="1.45074">
        <ele>115.8</ele>
        <time>2021-08-18T13:41:03Z</time>
      </trkpt>
      <trkpt lat="43.83594" lon="1.44946">
        <ele>115.3</ele>
        <time>2021-08-18T13:41:28Z</time>
      </trkpt>
      <trkpt lat="43.83596" lon="1.44802">
        <ele>116.5</ele>
        <time>2021-08-18T13:41:53Z</time>
      </trkpt>
      <trkpt lat="43.83601" lon="1.44674">
        <ele>116.7</ele>
        <time>2021-08-18T13:42:13Z</time>
      </trkpt>
      <trkpt lat="43.83595" lon="1.44543">
        <ele>112.5</ele>
        <time>2021-08-18T13:42:33Z</time>
      </trkpt>
      <trkpt lat="43.83576" lon="1.44391">
        <ele>110.2</ele>
        <time>2021-08-18T13:42:58Z</time>
      </trkpt>
      <trkpt lat="43.83554" lon="1.44265">
        <ele>112.6</ele>
        <time>2021-08-18T13:43:18Z</time>
      </trkpt>
      <trkpt lat="43.83508" lon="1.44127">
        <ele>114.1</ele>
        <time>2021-08-18T13:43:43Z</time>
      </trkpt>
      <trkpt lat="43.83465" lon="1.43989">
        <ele>117.5</ele>
        <time>2021-08-18T13:44:13Z</time>
      </trkpt>
      <trkpt lat="43.83413" lon="1.43866">
        <ele>117.6</ele>
        <time>2021-08-18T13:44:43Z</time>
      </trkpt>
      <trkpt lat="43.8335" lon="1.43762">
        <ele>114.4</ele>
        <time>2021-08-18T13:45:18Z</time>
      </trkpt>
      <trkpt lat="43.83295" lon="1.43646">
        <ele>112.1</ele>
        <time>2021-08-18T13:46:04Z</time>
      </trkpt>
      <trkpt lat="43.83231" lon="1.43544">
        <ele>121.7</ele>
        <time>2021-08-18T13:46:50Z</time>
      </trkpt>
      <trkpt lat="43.83199" lon="1.43421">
        <ele>130.5</ele>
        <time>2021-08-18T13:47:30Z</time>
      </trkpt>
      <trkpt lat="43.83115" lon="1.43343">
        <ele>128.2</ele>
        <time>2021-08-18T13:48:00Z</time>
      </trkpt>
      <trkpt lat="43.83076" lon="1.43226">
        <ele>126.3</ele>
        <time>2021-08-18T13:48:35Z</time>
      </trkpt>
      <trkpt lat="43.83134" lon="1.43122">
        <ele>133.4</ele>
        <time>2021-08-18T13:50:15Z</time>
      </trkpt>
      <trkpt lat="43.83189" lon="1.43004">
        <ele>140.7</ele>
        <time>2021-08-18T13:50:40Z</time>
      </trkpt>
      <trkpt lat="43.83231" lon="1.42887">
        <ele>135.7</ele>
        <time>2021-08-18T13:51:00Z</time>
      </trkpt>
      <trkpt lat="43.83264" lon="1.42767">
        <ele>134.7</ele>
        <time>2021-08-18T13:51:20Z</time>
      </trkpt>
      <trkpt lat="43.83179" lon="1.42708">
        <ele>134.1</ele>
        <time>2021-08-18T13:51:55Z</time>
      </trkpt>
      <trkpt lat="43.83089" lon="1.42708">
        <ele>138.8</ele>
        <time>2021-08-18T13:52:20Z</time>
      </trkpt>
      <trkpt lat="43.83044" lon="1.42575">
        <ele>149.7</ele>
        <time>2021-08-18T13:52:50Z</time>
      </trkpt>
      <trkpt lat="43.83022" lon="1.42428">
        <ele>155.6</ele>
        <time>2021-08-18T13:53:15Z</time>
      </trkpt>
      <trkpt lat="43.82979" lon="1.42285">
        <ele>155.4</ele>
        <time>2021-08-18T13:53:40Z</time>
      </trkpt>
      <trkpt lat="43.82948" lon="1.42143">
        <ele>144.6</ele>
        <time>2021-08-18T13:54:05Z</time>
      </trkpt>
      <trkpt lat="43.82942" lon="1.41996">
        <ele>142</ele>
        <time>2021-08-18T13:54:30Z</time>
      </trkpt>
      <trkpt lat="43.82963" lon="1.41871">
        <ele>148.2</ele>
        <time>2021-08-18T13:54:50Z</time>
      </trkpt>
      <trkpt lat="43.82974" lon="1.41743">
        <ele>152.3</ele>
        <time>2021-08-18T13:55:15Z</time>
      </trkpt>
      <trkpt lat="43.83013" lon="1.41611">
        <ele>146.6</ele>
        <time>2021-08-18T13:55:45Z</time>
      </trkpt>
      <trkpt lat="43.83098" lon="1.41521">
        <ele>142.6</ele>
        <time>2021-08-18T13:56:15Z</time>
      </trkpt>
      <trkpt lat="43.83158" lon="1.41427">
        <ele>149.3</ele>
        <time>2021-08-18T13:56:35Z</time>
      </trkpt>
      <trkpt lat="43.83195" lon="1.41313">
        <ele>153.3</ele>
        <time>2021-08-18T13:56:55Z</time>
      </trkpt>
      <trkpt lat="43.83208" lon="1.41189">
        <ele>151.7</ele>
        <time>2021-08-18T13:57:15Z</time>
      </trkpt>
      <trkpt lat="43.83234" lon="1.41041">
        <ele>149.4</ele>
        <time>2021-08-18T13:57:40Z</time>
      </trkpt>
      <trkpt lat="43.83284" lon="1.40908">
        <ele>148.1</ele>
        <time>2021-08-18T13:58:05Z</time>
      </trkpt>
      <trkpt lat="43.83336" lon="1.40801">
        <ele>144.2</ele>
        <time>2021-08-18T13:58:25Z</time>
      </trkpt>
      <trkpt lat="43.83386" lon="1.40671">
        <ele>144.3</ele>
        <time>2021-08-18T13:58:50Z</time>
      </trkpt>
      <trkpt lat="43.83422" lon="1.40532">
        <ele>144.9</ele>
        <time>2021-08-18T13:59:15Z</time>
      </trkpt>
      <trkpt lat="43.83403" lon="1.40397">
        <ele>150.2</ele>
        <time>2021-08-18T13:59:35Z</time>
      </trkpt>
      <trkpt lat="43.8342" lon="1.40272">
        <ele>146.5</ele>
        <time>2021-08-18T13:59:55Z</time>
      </trkpt>
      <trkpt lat="43.83456" lon="1.40133">
        <ele>146.2</ele>
        <time>2021-08-18T14:00:20Z</time>
      </trkpt>
      <trkpt lat="43.83466" lon="1.39985">
        <ele>150.2</ele>
        <time>2021-08-18T14:00:45Z</time>
      </trkpt>
      <trkpt lat="43.83476" lon="1.39857">
        <ele>148.4</ele>
        <time>2021-08-18T14:01:05Z</time>
      </trkpt>
      <trkpt lat="43.83496" lon="1.39734">
        <ele>147.6</ele>
        <time>2021-08-18T14:01:25Z</time>
      </trkpt>
      <trkpt lat="43.83571" lon="1.3962">
        <ele>143.8</ele>
        <time>2021-08-18T14:01:45Z</time>
      </trkpt>
      <trkpt lat="43.83653" lon="1.39543">
        <ele>144.2</ele>
        <time>2021-08-18T14:02:05Z</time>
      </trkpt>
      <trkpt lat="43.83732" lon="1.39467">
        <ele>144.4</ele>
        <time>2021-08-18T14:02:20Z</time>
      </trkpt>
      <trkpt lat="43.83812" lon="1.39378">
        <ele>146.1</ele>
        <time>2021-08-18T14:02:35Z</time>
      </trkpt>
      <trkpt lat="43.83874" lon="1.39264">
        <ele>145.6</ele>
        <time>2021-08-18T14:03:00Z</time>
      </trkpt>
      <trkpt lat="43.83922" lon="1.39134">
        <ele>150.8</ele>
        <time>2021-08-18T14:03:30Z</time>
      </trkpt>
      <trkpt lat="43.83968" lon="1.39021">
        <ele>151.9</ele>
        <time>2021-08-18T14:03:50Z</time>
      </trkpt>
      <trkpt lat="43.8402" lon="1.38893">
        <ele>153.9</ele>
        <time>2021-08-18T14:04:15Z</time>
      </trkpt>
      <trkpt lat="43.83925" lon="1.38949">
        <ele>146.2</ele>
        <time>2021-08-18T14:08:50Z</time>
      </trkpt>
      <trkpt lat="43.84017" lon="1.38894">
        <ele>142.1</ele>
        <time>2021-08-18T14:32:11Z</time>
      </trkpt>
      <trkpt lat="43.84068" lon="1.38747">
        <ele>135.5</ele>
        <time>2021-08-18T14:32:36Z</time>
      </trkpt>
      <trkpt lat="43.84104" lon="1.38621">
        <ele>129.2</ele>
        <time>2021-08-18T14:32:46Z</time>
      </trkpt>
      <trkpt lat="43.84179" lon="1.3854">
        <ele>120.3</ele>
        <time>2021-08-18T14:33:16Z</time>
      </trkpt>
      <trkpt lat="43.84223" lon="1.38425">
        <ele>115.1</ele>
        <time>2021-08-18T14:33:41Z</time>
      </trkpt>
      <trkpt lat="43.84254" lon="1.38303">
        <ele>116.8</ele>
        <time>2021-08-18T14:34:06Z</time>
      </trkpt>
      <trkpt lat="43.84287" lon="1.38168">
        <ele>118</ele>
        <time>2021-08-18T14:34:36Z</time>
      </trkpt>
      <trkpt lat="43.84323" lon="1.38049">
        <ele>119.7</ele>
        <time>2021-08-18T14:35:11Z</time>
      </trkpt>
      <trkpt lat="43.84397" lon="1.37958">
        <ele>137</ele>
        <time>2021-08-18T14:35:51Z</time>
      </trkpt>
      <trkpt lat="43.84466" lon="1.37863">
        <ele>142.8</ele>
        <time>2021-08-18T14:36:26Z</time>
      </trkpt>
      <trkpt lat="43.84534" lon="1.37771">
        <ele>137.1</ele>
        <time>2021-08-18T14:36:56Z</time>
      </trkpt>
      <trkpt lat="43.84583" lon="1.37663">
        <ele>134.7</ele>
        <time>2021-08-18T14:37:21Z</time>
      </trkpt>
      <trkpt lat="43.84618" lon="1.3752">
        <ele>137.9</ele>
        <time>2021-08-18T14:37:46Z</time>
      </trkpt>
      <trkpt lat="43.84669" lon="1.37379">
        <ele>136.2</ele>
        <time>2021-08-18T14:38:11Z</time>
      </trkpt>
      <trkpt lat="43.84718" lon="1.37251">
        <ele>137.1</ele>
        <time>2021-08-18T14:38:31Z</time>
      </trkpt>
      <trkpt lat="43.84769" lon="1.37117">
        <ele>134.5</ele>
        <time>2021-08-18T14:38:56Z</time>
      </trkpt>
      <trkpt lat="43.84813" lon="1.36991">
        <ele>133.3</ele>
        <time>2021-08-18T14:39:21Z</time>
      </trkpt>
      <trkpt lat="43.84857" lon="1.36875">
        <ele>139.7</ele>
        <time>2021-08-18T14:39:46Z</time>
      </trkpt>
      <trkpt lat="43.84905" lon="1.36761">
        <ele>140</ele>
        <time>2021-08-18T14:40:11Z</time>
      </trkpt>
      <trkpt lat="43.84968" lon="1.36666">
        <ele>141.9</ele>
        <time>2021-08-18T14:40:36Z</time>
      </trkpt>
      <trkpt lat="43.85049" lon="1.36604">
        <ele>146.5</ele>
        <time>2021-08-18T14:41:01Z</time>
      </trkpt>
      <trkpt lat="43.85145" lon="1.36528">
        <ele>145.6</ele>
        <time>2021-08-18T14:41:26Z</time>
      </trkpt>
      <trkpt lat="43.85227" lon="1.36448">
        <ele>144.3</ele>
        <time>2021-08-18T14:41:46Z</time>
      </trkpt>
      <trkpt lat="43.85303" lon="1.36347">
        <ele>145.5</ele>
        <time>2021-08-18T14:42:06Z</time>
      </trkpt>
      <trkpt lat="43.85378" lon="1.36237">
        <ele>144.1</ele>
        <time>2021-08-18T14:42:26Z</time>
      </trkpt>
      <trkpt lat="43.85429" lon="1.36133">
        <ele>142.2</ele>
        <time>2021-08-18T14:42:46Z</time>
      </trkpt>
      <trkpt lat="43.85489" lon="1.3603">
        <ele>139.6</ele>
        <time>2021-08-18T14:43:06Z</time>
      </trkpt>
      <trkpt lat="43.85568" lon="1.35924">
        <ele>135.3</ele>
        <time>2021-08-18T14:43:31Z</time>
      </trkpt>
      <trkpt lat="43.85618" lon="1.35799">
        <ele>135.6</ele>
        <time>2021-08-18T14:43:56Z</time>
      </trkpt>
      <trkpt lat="43.85672" lon="1.35677">
        <ele>135.2</ele>
        <time>2021-08-18T14:44:21Z</time>
      </trkpt>
      <trkpt lat="43.85721" lon="1.3557">
        <ele>134.3</ele>
        <time>2021-08-18T14:44:41Z</time>
      </trkpt>
      <trkpt lat="43.85767" lon="1.35459">
        <ele>135.2</ele>
        <time>2021-08-18T14:45:01Z</time>
      </trkpt>
      <trkpt lat="43.85824" lon="1.35331">
        <ele>135.7</ele>
        <time>2021-08-18T14:45:26Z</time>
      </trkpt>
      <trkpt lat="43.85869" lon="1.35205">
        <ele>135.8</ele>
        <time>2021-08-18T14:45:51Z</time>
      </trkpt>
      <trkpt lat="43.8592" lon="1.35093">
        <ele>138.2</ele>
        <time>2021-08-18T14:46:16Z</time>
      </trkpt>
      <trkpt lat="43.86018" lon="1.35053">
        <ele>142.7</ele>
        <time>2021-08-18T14:46:41Z</time>
      </trkpt>
      <trkpt lat="43.86122" lon="1.35015">
        <ele>148.7</ele>
        <time>2021-08-18T14:47:06Z</time>
      </trkpt>
      <trkpt lat="43.86212" lon="1.34955">
        <ele>148.5</ele>
        <time>2021-08-18T14:47:40Z</time>
      </trkpt>
      <trkpt lat="43.86133" lon="1.34816">
        <ele>130.9</ele>
        <time>2021-08-18T14:49:24Z</time>
      </trkpt>
      <trkpt lat="43.8611" lon="1.34658">
        <ele>126.8</ele>
        <time>2021-08-18T14:49:39Z</time>
      </trkpt>
      <trkpt lat="43.86079" lon="1.34527">
        <ele>127.7</ele>
        <time>2021-08-18T14:50:14Z</time>
      </trkpt>
      <trkpt lat="43.86045" lon="1.34401">
        <ele>128</ele>
        <time>2021-08-18T14:51:06Z</time>
      </trkpt>
      <trkpt lat="43.86122" lon="1.34319">
        <ele>136</ele>
        <time>2021-08-18T14:51:52Z</time>
      </trkpt>
      <trkpt lat="43.86221" lon="1.34295">
        <ele>131</ele>
        <time>2021-08-18T14:52:12Z</time>
      </trkpt>
      <trkpt lat="43.8622" lon="1.3431">
        <ele>128</ele>
        <time>2021-08-18T14:53:04Z</time>
      </trkpt>
    </trkseg>
  </trk>
</gpx>